Time;durP1;ratioP1;P1;durP2;ratioP2;P2;SDS_P1;SDS_P2;PMS_P1;PMS_P2;Temp;Humidity;BMP_temperature;BMP_pressure;BME280_temperature;BME280_humidity;BME280_pressure;Samples;Min_cycle;Max_cycle;Signal;HPM_P1;HPM_P2
2023/05/12 00:00:43;;;;;;;61.47;27.13;;;13.40;99.90;;;;;;5010765;28;20203;-67
2023/05/12 00:03:08;;;;;;;63.83;26.70;;;13.40;99.90;;;;;;5020065;28;20175;-66
2023/05/12 00:05:34;;;;;;;64.37;26.70;;;13.40;99.90;;;;;;5031850;28;20249;-67
2023/05/12 00:08:00;;;;;;;53.90;27.33;;;13.30;99.90;;;;;;5025091;28;20200;-67
2023/05/12 00:10:28;;;;;;;65.67;27.07;;;13.40;99.90;;;;;;5011315;28;20199;-67
2023/05/12 00:12:54;;;;;;;65.03;26.50;;;13.40;99.90;;;;;;5016573;28;20180;-67
2023/05/12 00:15:20;;;;;;;55.73;25.13;;;13.40;99.90;;;;;;5031862;28;20197;-67
2023/05/12 00:17:46;;;;;;;58.17;26.03;;;13.40;99.90;;;;;;5027970;28;20572;-66
2023/05/12 00:20:11;;;;;;;69.00;25.93;;;13.40;99.90;;;;;;5011379;28;20188;-67
2023/05/12 00:22:38;;;;;;;54.67;24.17;;;13.40;99.90;;;;;;5012522;28;20183;-65
2023/05/12 00:25:04;;;;;;;56.23;24.90;;;13.40;99.90;;;;;;5031747;28;20175;-67
2023/05/12 00:27:30;;;;;;;49.57;23.40;;;13.40;99.90;;;;;;5026835;28;20196;-66
2023/05/12 00:29:57;;;;;;;55.93;24.77;;;13.40;99.90;;;;;;5011064;28;20661;-66
2023/05/12 00:32:23;;;;;;;52.60;23.20;;;13.30;99.90;;;;;;5019393;28;20176;-67
2023/05/12 00:34:49;;;;;;;58.97;24.13;;;13.30;99.90;;;;;;5031043;28;20218;-67
2023/05/12 00:37:15;;;;;;;58.67;24.20;;;13.30;99.90;;;;;;5024858;28;20204;-67
2023/05/12 00:39:41;;;;;;;53.90;24.60;;;13.40;99.90;;;;;;5015015;28;20188;-67
2023/05/12 00:42:07;;;;;;;55.53;23.53;;;13.40;99.90;;;;;;5031451;28;20189;-67
2023/05/12 00:44:32;;;;;;;48.63;22.67;;;13.30;99.90;;;;;;5025815;28;20222;-66
2023/05/12 00:46:58;;;;;;;56.77;24.50;;;13.30;99.90;;;;;;5011688;28;20196;-67
2023/05/12 00:49:26;;;;;;;48.40;22.70;;;13.40;99.90;;;;;;5012010;28;20208;-67
2023/05/12 00:51:54;;;;;;;59.83;22.43;;;13.40;99.90;;;;;;5011739;28;20168;-67
2023/05/12 00:54:20;;;;;;;53.20;22.07;;;13.50;99.90;;;;;;5025370;28;20171;-67
2023/05/12 00:56:46;;;;;;;51.33;21.70;;;13.40;99.90;;;;;;5027373;28;20196;-66
2023/05/12 00:59:12;;;;;;;47.67;21.97;;;13.50;99.90;;;;;;5011298;28;20732;-67
2023/05/12 01:01:38;;;;;;;54.23;23.00;;;13.50;99.90;;;;;;5012169;28;20263;-67
2023/05/12 01:04:04;;;;;;;47.33;21.67;;;13.50;99.90;;;;;;5031165;28;20231;-67
2023/05/12 01:06:42;;;;;;;48.27;22.43;;;13.50;99.90;;;;;;5029192;28;20171;-67
2023/05/12 01:09:08;;;;;;;53.87;20.97;;;13.40;99.90;;;;;;5020710;28;20208;-67
2023/05/12 01:11:34;;;;;;;54.80;22.17;;;13.40;99.90;;;;;;5011201;28;20172;-67
2023/05/12 01:14:00;;;;;;;46.47;21.07;;;13.50;99.90;;;;;;5019035;28;20175;-67
2023/05/12 01:16:34;;;;;;;48.57;21.27;;;13.50;99.90;;;;;;5030718;28;20250;-67
2023/05/12 01:19:04;;;;;;;46.80;21.13;;;13.50;99.90;;;;;;5023462;28;20176;-67
2023/05/12 01:21:30;;;;;;;48.03;20.80;;;13.40;99.90;;;;;;5011666;28;20238;-68
2023/05/12 01:24:00;;;;;;;46.33;22.33;;;13.50;99.90;;;;;;5017392;28;20175;-67
2023/05/12 01:26:28;;;;;;;47.73;20.67;;;13.40;99.90;;;;;;5030611;28;20175;-67
2023/05/12 01:28:55;;;;;;;46.77;20.93;;;13.40;99.90;;;;;;5025912;28;20251;-67
2023/05/12 01:31:21;;;;;;;45.00;19.13;;;13.50;99.90;;;;;;5014133;28;20172;-67
2023/05/12 01:33:47;;;;;;;44.33;19.97;;;13.40;99.90;;;;;;5027109;28;20180;-67
2023/05/12 01:36:12;;;;;;;46.20;21.00;;;13.40;99.90;;;;;;5034428;28;20171;-67
2023/05/12 01:38:38;;;;;;;47.37;21.53;;;13.40;99.90;;;;;;5022235;28;20192;-67
2023/05/12 01:41:04;;;;;;;49.07;20.30;;;13.40;99.90;;;;;;5013874;28;20184;-67
2023/05/12 01:43:29;;;;;;;44.93;20.70;;;13.40;99.90;;;;;;5023513;28;20163;-67
2023/05/12 01:45:55;;;;;;;43.20;19.40;;;13.50;99.90;;;;;;5032148;28;20175;-67
2023/05/12 01:48:20;;;;;;;42.03;19.77;;;13.60;99.90;;;;;;5026326;28;20203;-67
2023/05/12 01:50:46;;;;;;;41.37;21.13;;;13.60;99.90;;;;;;5013091;28;20208;-67
2023/05/12 01:53:11;;;;;;;45.23;19.63;;;13.60;99.90;;;;;;5019798;28;20176;-67
2023/05/12 01:55:37;;;;;;;50.23;19.50;;;13.60;99.90;;;;;;5033959;28;20176;-67
2023/05/12 02:00:30;;;;;;;43.57;17.83;;;13.50;99.90;;;;;;5029977;28;20261;-67
2023/05/12 02:02:56;;;;;;;42.47;20.20;;;13.50;99.90;;;;;;5033105;28;20183;-67
2023/05/12 02:05:22;;;;;;;39.60;17.80;;;13.40;99.90;;;;;;5033684;28;20179;-67
2023/05/12 02:07:47;;;;;;;38.37;18.23;;;13.40;99.90;;;;;;5033276;28;20226;-67
2023/05/12 02:10:13;;;;;;;33.80;19.30;;;13.40;99.90;;;;;;5032864;28;20210;-67
2023/05/12 02:12:39;;;;;;;45.37;19.07;;;13.40;99.90;;;;;;5032824;28;20175;-67
2023/05/12 02:15:05;;;;;;;37.57;17.77;;;13.40;99.90;;;;;;5033473;28;20282;-67
2023/05/12 02:17:30;;;;;;;36.63;18.83;;;13.40;99.90;;;;;;5033119;28;20203;-67
2023/05/12 02:19:56;;;;;;;37.77;17.23;;;13.40;99.90;;;;;;5032576;28;20179;-67
2023/05/12 02:22:21;;;;;;;35.03;17.23;;;13.40;99.90;;;;;;5032989;28;20270;-67
2023/05/12 02:24:47;;;;;;;30.80;15.43;;;13.40;99.90;;;;;;5033110;28;20210;-67
2023/05/12 02:27:13;;;;;;;31.20;15.70;;;13.40;99.90;;;;;;5048286;28;20179;-64
2023/05/12 02:29:38;;;;;;;24.97;14.70;;;13.50;99.90;;;;;;5032216;28;20198;-64
2023/05/12 02:32:04;;;;;;;28.47;14.33;;;13.50;99.90;;;;;;5033051;28;20237;-64
2023/05/12 02:34:30;;;;;;;29.00;14.67;;;13.50;99.90;;;;;;5048223;28;20229;-64
2023/05/12 02:36:55;;;;;;;30.73;15.13;;;13.50;99.90;;;;;;5032478;28;20175;-64
2023/05/12 02:39:21;;;;;;;31.20;15.00;;;13.50;99.90;;;;;;5032123;28;20191;-64
2023/05/12 02:41:46;;;;;;;24.50;14.00;;;13.50;99.90;;;;;;5032511;28;20185;-64
2023/05/12 02:44:12;;;;;;;27.37;14.27;;;13.50;99.90;;;;;;5030499;28;20179;-67
2023/05/12 02:46:38;;;;;;;31.17;14.93;;;13.50;99.90;;;;;;5032331;28;20188;-67
2023/05/12 02:49:03;;;;;;;23.40;13.03;;;13.50;99.90;;;;;;5032525;28;20261;-66
2023/05/12 02:51:29;;;;;;;25.03;13.00;;;13.60;99.90;;;;;;5032074;28;20175;-67
2023/05/12 02:53:55;;;;;;;22.07;12.63;;;13.60;99.90;;;;;;5032527;28;20251;-67
2023/05/12 02:56:21;;;;;;;24.70;12.43;;;13.50;99.90;;;;;;5032841;28;20250;-67
2023/05/12 02:58:47;;;;;;;25.17;12.30;;;13.50;99.90;;;;;;5032128;28;20207;-67
2023/05/12 03:01:13;;;;;;;18.77;12.10;;;13.50;99.90;;;;;;5031643;28;20179;-67
2023/05/12 03:03:39;;;;;;;18.83;11.67;;;13.50;99.90;;;;;;5032457;28;20176;-67
2023/05/12 03:06:05;;;;;;;22.07;12.60;;;13.50;99.90;;;;;;5032463;28;20179;-67
2023/05/12 03:08:31;;;;;;;18.97;11.80;;;13.50;99.90;;;;;;5032042;28;20195;-67
2023/05/12 03:10:56;;;;;;;22.50;10.87;;;13.50;99.90;;;;;;5031378;28;20206;-67
2023/05/12 03:13:22;;;;;;;18.10;11.40;;;13.50;99.90;;;;;;5032137;28;20198;-67
2023/05/12 03:15:48;;;;;;;19.47;11.67;;;13.50;99.90;;;;;;5032293;28;20306;-67
2023/05/12 03:18:13;;;;;;;16.27;10.53;;;13.50;99.90;;;;;;5031984;28;20195;-67
2023/05/12 03:20:39;;;;;;;14.73;10.83;;;13.50;99.90;;;;;;5031062;28;20549;-67
2023/05/12 03:23:04;;;;;;;14.57;10.83;;;13.50;99.90;;;;;;5032093;28;20172;-67
2023/05/12 03:25:30;;;;;;;16.63;10.43;;;13.50;99.90;;;;;;5031932;28;20254;-67
2023/05/12 03:27:56;;;;;;;13.07;10.33;;;13.50;99.90;;;;;;5032055;28;20187;-67
2023/05/12 03:30:21;;;;;;;11.60;9.23;;;13.50;99.90;;;;;;5029013;28;20196;-67
2023/05/12 03:32:47;;;;;;;14.53;10.50;;;13.50;99.90;;;;;;5031470;28;20298;-67
2023/05/12 03:35:13;;;;;;;18.50;9.77;;;13.40;99.90;;;;;;5031902;28;20178;-67
2023/05/12 03:37:38;;;;;;;14.27;10.00;;;13.50;99.90;;;;;;5031886;28;20187;-67
2023/05/12 03:40:05;;;;;;;17.50;9.43;;;13.50;99.90;;;;;;5031027;28;20192;-67
2023/05/12 03:42:30;;;;;;;14.00;9.50;;;13.40;99.90;;;;;;5031689;28;20661;-67
2023/05/12 03:44:56;;;;;;;15.53;9.27;;;13.40;99.90;;;;;;5031258;28;20206;-67
2023/05/12 03:47:21;;;;;;;14.83;8.90;;;13.40;99.90;;;;;;5032031;28;20270;-67
2023/05/12 03:49:47;;;;;;;15.03;8.87;;;13.40;99.90;;;;;;5030611;28;20207;-67
2023/05/12 03:52:13;;;;;;;10.20;8.47;;;13.40;99.90;;;;;;5031315;28;20168;-67
2023/05/12 03:54:38;;;;;;;14.57;9.47;;;13.40;99.90;;;;;;5031119;28;20206;-67
2023/05/12 03:57:04;;;;;;;11.67;9.07;;;13.40;99.90;;;;;;5031536;28;20168;-67
2023/05/12 03:59:31;;;;;;;10.73;8.37;;;13.40;99.90;;;;;;5029217;28;20187;-67
2023/05/12 04:01:57;;;;;;;11.87;8.43;;;13.40;99.90;;;;;;5031564;28;20640;-67
2023/05/12 04:04:22;;;;;;;13.07;8.60;;;13.40;99.90;;;;;;5030943;28;20182;-64
2023/05/12 04:06:48;;;;;;;10.43;7.90;;;13.40;99.90;;;;;;5029869;28;20658;-64
2023/05/12 04:09:15;;;;;;;13.50;8.30;;;13.40;99.90;;;;;;5030583;28;20334;-64
2023/05/12 04:11:41;;;;;;;11.10;7.63;;;13.40;99.90;;;;;;5031720;28;20171;-67
2023/05/12 04:14:07;;;;;;;10.67;8.20;;;13.40;99.90;;;;;;5032041;28;20636;-67
2023/05/12 04:16:34;;;;;;;11.90;7.53;;;13.50;99.90;;;;;;5032068;28;20268;-67
2023/05/12 04:19:00;;;;;;;9.00;8.20;;;13.50;99.90;;;;;;5029916;28;20226;-68
2023/05/12 04:21:26;;;;;;;8.97;8.07;;;13.40;99.90;;;;;;5031054;28;20636;-70
2023/05/12 04:23:51;;;;;;;12.30;8.57;;;13.40;99.90;;;;;;5031451;28;20187;-68
2023/05/12 04:26:17;;;;;;;8.47;7.60;;;13.40;99.90;;;;;;5032030;28;20167;-68
2023/05/12 04:28:43;;;;;;;10.13;8.13;;;13.50;99.90;;;;;;5030922;28;20203;-66
2023/05/12 04:31:08;;;;;;;10.53;7.77;;;13.50;99.90;;;;;;5030212;28;20549;-66
2023/05/12 04:33:34;;;;;;;9.20;7.60;;;13.50;99.90;;;;;;5030803;28;20191;-66
2023/05/12 04:36:00;;;;;;;8.23;7.43;;;13.60;99.90;;;;;;5031272;28;20195;-66
2023/05/12 04:38:26;;;;;;;10.43;8.20;;;13.50;99.90;;;;;;5030811;28;20717;-66
2023/05/12 04:40:57;;;;;;;8.33;7.30;;;13.50;99.90;;;;;;5030119;28;20199;-66
2023/05/12 04:43:23;;;;;;;9.30;7.90;;;13.50;99.90;;;;;;5030886;28;20232;-66
2023/05/12 04:45:49;;;;;;;11.63;8.07;;;13.50;99.90;;;;;;5031350;28;20172;-66
2023/05/12 04:48:15;;;;;;;13.10;8.67;;;13.40;99.90;;;;;;5031000;28;20289;-66
2023/05/12 04:50:41;;;;;;;10.43;8.67;;;13.40;99.90;;;;;;5030194;28;20689;-66
2023/05/12 04:53:07;;;;;;;15.17;10.67;;;13.40;99.90;;;;;;5030323;28;20254;-66
2023/05/12 04:55:32;;;;;;;19.93;11.43;;;13.40;99.90;;;;;;5030944;28;20176;-66
2023/05/12 04:57:58;;;;;;;17.70;11.70;;;13.40;99.90;;;;;;5030757;28;20546;-66
2023/05/12 05:00:23;;;;;;;16.33;12.43;;;13.30;99.90;;;;;;5030202;28;20195;-66
2023/05/12 05:02:49;;;;;;;16.00;13.03;;;13.20;99.90;;;;;;5030521;28;20195;-66
2023/05/12 05:05:15;;;;;;;15.23;13.03;;;13.20;99.90;;;;;;5034107;28;20178;-66
2023/05/12 05:07:40;;;;;;;17.13;14.03;;;13.20;99.90;;;;;;5034337;28;20207;-66
2023/05/12 05:10:06;;;;;;;15.60;14.00;;;13.20;99.90;;;;;;5034005;28;20207;-66
2023/05/12 05:12:32;;;;;;;16.90;13.40;;;13.20;99.90;;;;;;5034285;28;20203;-66
2023/05/12 05:14:58;;;;;;;13.43;11.50;;;13.20;99.90;;;;;;5034351;28;20195;-66
2023/05/12 05:17:23;;;;;;;13.57;10.87;;;13.20;99.90;;;;;;5034263;28;20245;-66
2023/05/12 05:19:49;;;;;;;12.93;10.53;;;13.20;99.90;;;;;;5033641;28;20171;-66
2023/05/12 05:22:15;;;;;;;11.67;9.63;;;13.20;99.90;;;;;;5034062;28;20249;-66
2023/05/12 05:24:41;;;;;;;13.90;10.00;;;13.20;99.90;;;;;;5034302;28;20191;-65
2023/05/12 05:27:06;;;;;;;10.93;9.83;;;13.20;99.90;;;;;;5033801;28;20182;-65
2023/05/12 05:29:32;;;;;;;11.77;9.63;;;13.20;99.90;;;;;;5033721;28;20199;-66
2023/05/12 05:31:57;;;;;;;11.23;10.07;;;13.20;99.90;;;;;;5033682;28;20187;-66
2023/05/12 05:34:23;;;;;;;11.27;9.80;;;13.30;99.90;;;;;;5034240;28;20600;-66
2023/05/12 05:36:48;;;;;;;14.23;10.53;;;13.30;99.90;;;;;;5033628;28;20187;-66
2023/05/12 05:39:14;;;;;;;10.67;9.67;;;13.40;99.90;;;;;;5033535;28;20218;-66
2023/05/12 05:41:40;;;;;;;11.27;10.17;;;13.50;99.90;;;;;;5033617;28;20176;-65
2023/05/12 05:44:05;;;;;;;10.97;9.83;;;13.60;99.90;;;;;;5030468;28;20230;-66
2023/05/12 05:46:31;;;;;;;12.23;10.10;;;13.60;99.90;;;;;;5033717;28;20172;-66
2023/05/12 05:48:56;;;;;;;11.80;10.60;;;13.70;99.90;;;;;;5033501;28;20183;-66
2023/05/12 05:51:22;;;;;;;10.87;9.77;;;13.80;99.90;;;;;;5032750;28;20613;-66
2023/05/12 05:53:47;;;;;;;12.00;9.80;;;13.90;99.90;;;;;;5033836;28;20241;-65
2023/05/12 05:56:13;;;;;;;10.57;9.63;;;13.90;99.90;;;;;;5033873;28;20745;-66
2023/05/12 05:58:38;;;;;;;10.87;9.40;;;13.90;99.90;;;;;;5033545;28;20210;-66
2023/05/12 06:01:04;;;;;;;9.60;8.80;;;13.90;99.90;;;;;;5032150;28;20287;-66
2023/05/12 06:03:30;;;;;;;10.27;9.37;;;13.90;99.90;;;;;;5033651;28;20679;-66
2023/05/12 06:05:56;;;;;;;10.10;9.30;;;14.00;99.90;;;;;;5033397;28;20294;-66
2023/05/12 06:08:21;;;;;;;9.90;8.60;;;14.10;99.90;;;;;;5033686;28;20226;-66
2023/05/12 06:10:47;;;;;;;10.60;8.27;;;14.20;99.90;;;;;;5032192;28;20289;-65
2023/05/12 06:13:13;;;;;;;8.80;8.00;;;14.30;99.90;;;;;;5033355;28;20168;-66
2023/05/12 06:15:38;;;;;;;12.00;8.87;;;14.20;99.90;;;;;;5031876;28;20176;-66
2023/05/12 06:18:04;;;;;;;10.00;8.90;;;14.30;99.90;;;;;;5033372;28;20570;-66
2023/05/12 06:20:31;;;;;;;9.63;8.73;;;14.30;99.90;;;;;;5032284;28;20183;-66
2023/05/12 06:22:56;;;;;;;8.93;8.10;;;14.30;99.90;;;;;;5031704;28;20237;-65
2023/05/12 06:25:22;;;;;;;10.90;9.27;;;14.40;99.90;;;;;;5033711;28;20175;-65
2023/05/12 06:27:51;;;;;;;10.43;8.37;;;14.30;99.90;;;;;;5033323;28;20266;-65
2023/05/12 06:30:16;;;;;;;9.27;8.40;;;14.40;99.90;;;;;;5032454;28;20290;-66
2023/05/12 06:32:42;;;;;;;9.53;8.73;;;14.40;99.90;;;;;;5032971;28;20275;-66
2023/05/12 06:35:08;;;;;;;9.07;8.37;;;14.50;99.90;;;;;;5030717;28;20762;-66
2023/05/12 06:37:33;;;;;;;8.83;8.13;;;14.60;99.90;;;;;;5033008;28;20195;-65
2023/05/12 06:39:59;;;;;;;8.43;7.83;;;14.50;99.90;;;;;;5032389;28;20237;-66
2023/05/12 06:42:24;;;;;;;8.17;7.37;;;14.50;99.90;;;;;;5032968;28;20172;-66
2023/05/12 06:44:50;;;;;;;8.00;7.30;;;14.70;99.90;;;;;;5032720;28;20180;-65
2023/05/12 06:47:16;;;;;;;8.33;7.50;;;14.80;99.90;;;;;;5032955;28;20179;-66
2023/05/12 06:49:41;;;;;;;9.07;8.40;;;14.90;99.90;;;;;;5032024;28;20199;-66
2023/05/12 06:52:07;;;;;;;7.30;6.77;;;15.00;99.90;;;;;;5032901;28;20175;-65
2023/05/12 06:54:33;;;;;;;7.17;6.50;;;15.20;99.90;;;;;;5032677;28;20175;-65
2023/05/12 06:56:59;;;;;;;6.70;6.30;;;15.40;99.90;;;;;;5032462;28;20581;-65
2023/05/12 06:59:24;;;;;;;7.40;6.90;;;15.50;99.90;;;;;;5031815;28;20254;-65
2023/05/12 07:01:50;;;;;;;6.90;6.40;;;15.80;99.90;;;;;;5032191;28;20176;-65
2023/05/12 07:04:15;;;;;;;6.43;6.00;;;16.00;99.90;;;;;;5031712;28;20210;-65
2023/05/12 07:06:41;;;;;;;6.80;6.40;;;16.20;99.90;;;;;;5031589;28;20180;-65
2023/05/12 07:09:07;;;;;;;8.77;8.27;;;16.30;99.90;;;;;;5031477;28;20195;-65
2023/05/12 07:11:32;;;;;;;6.17;5.77;;;16.30;99.90;;;;;;5032599;28;20181;-65
2023/05/12 07:13:58;;;;;;;5.57;5.27;;;16.50;99.90;;;;;;5032381;28;20175;-65
2023/05/12 07:16:23;;;;;;;6.03;5.73;;;16.60;99.90;;;;;;5032438;28;20725;-65
2023/05/12 07:18:49;;;;;;;6.40;6.00;;;16.70;99.90;;;;;;5030061;28;20249;-65
2023/05/12 07:21:15;;;;;;;6.20;5.90;;;16.60;99.90;;;;;;5031707;28;20207;-65
2023/05/12 07:23:41;;;;;;;8.60;8.10;;;16.40;99.90;;;;;;5032024;28;20253;-65
2023/05/12 07:26:07;;;;;;;8.00;7.60;;;16.40;99.90;;;;;;5031553;28;20180;-65
2023/05/12 07:28:35;;;;;;;8.63;7.77;;;16.60;99.90;;;;;;5032090;28;20673;-65
2023/05/12 07:31:06;;;;;;;9.20;8.47;;;16.70;99.90;;;;;;5031067;28;20681;-66
2023/05/12 07:33:31;;;;;;;6.53;6.13;;;17.00;99.90;;;;;;5031469;28;20198;-66
2023/05/12 07:35:57;;;;;;;9.07;8.60;;;17.20;99.90;;;;;;5031998;28;20179;-64
2023/05/12 07:38:23;;;;;;;8.10;7.70;;;17.10;99.90;;;;;;5031712;28;20543;-63
2023/05/12 07:40:49;;;;;;;5.47;5.17;;;17.00;99.90;;;;;;5030674;28;20183;-65
2023/05/12 07:43:16;;;;;;;6.73;6.33;;;16.80;99.90;;;;;;5031122;28;20183;-66
2023/05/12 07:45:42;;;;;;;5.17;4.77;;;16.60;99.90;;;;;;5031511;28;20203;-65
2023/05/12 07:48:08;;;;;;;6.47;5.97;;;16.60;99.90;;;;;;5031739;28;20238;-65
2023/05/12 07:50:33;;;;;;;5.53;5.23;;;16.50;99.90;;;;;;5027839;28;20602;-65
2023/05/12 07:52:59;;;;;;;6.50;6.10;;;16.40;99.90;;;;;;5030533;28;20183;-65
2023/05/12 07:55:25;;;;;;;5.70;5.40;;;16.40;99.90;;;;;;5030992;28;20556;-65
2023/05/12 07:57:50;;;;;;;5.77;5.37;;;16.40;99.90;;;;;;5030128;28;20206;-65
2023/05/12 08:00:17;;;;;;;9.30;8.70;;;16.40;99.90;;;;;;5030490;28;20187;-65
2023/05/12 08:02:42;;;;;;;5.80;5.50;;;16.30;99.90;;;;;;5031068;28;20544;-66
2023/05/12 08:05:09;;;;;;;5.33;5.03;;;16.20;99.90;;;;;;5029987;28;20187;-65
2023/05/12 08:07:35;;;;;;;5.37;5.07;;;16.10;99.90;;;;;;5030588;28;20222;-65
2023/05/12 08:10:05;;;;;;;5.80;5.40;;;16.10;99.90;;;;;;5030276;28;20700;-65
2023/05/12 08:12:31;;;;;;;6.13;5.73;;;16.20;99.90;;;;;;5030953;28;20727;-65
2023/05/12 08:14:57;;;;;;;5.60;5.30;;;16.30;99.90;;;;;;5030659;28;20183;-65
2023/05/12 08:17:23;;;;;;;6.70;6.20;;;16.40;99.90;;;;;;5030958;28;20195;-66
2023/05/12 08:19:48;;;;;;;6.53;6.13;;;16.40;99.90;;;;;;5028600;28;20225;-65
2023/05/12 08:22:14;;;;;;;6.90;6.50;;;16.40;99.90;;;;;;5030865;28;20233;-65
2023/05/12 08:24:39;;;;;;;5.40;5.10;;;16.40;99.90;;;;;;5030219;28;20262;-66
2023/05/12 08:27:05;;;;;;;6.63;6.23;;;16.50;99.90;;;;;;5029983;28;20679;-66
2023/05/12 08:29:30;;;;;;;6.70;6.27;;;16.60;99.90;;;;;;5030085;28;20294;-66
2023/05/12 08:31:57;;;;;;;5.30;4.80;;;16.70;99.90;;;;;;5030569;28;20183;-65
2023/05/12 08:34:23;;;;;;;6.30;5.90;;;16.80;99.90;;;;;;5030989;28;20176;-66
2023/05/12 08:36:51;;;;;;;5.57;5.10;;;17.00;99.90;;;;;;5030794;28;20214;-66
2023/05/12 08:39:17;;;;;;;5.17;4.87;;;17.10;99.90;;;;;;5033257;28;20660;-66
2023/05/12 08:42:09;;;;;;;4.67;4.47;;;17.30;99.90;;;;;;5034765;28;20255;-66
2023/05/12 08:44:37;;;;;;;5.70;5.30;;;17.50;99.90;;;;;;5015002;28;20218;-66
2023/05/12 08:47:04;;;;;;;4.77;4.47;;;17.50;99.90;;;;;;5040484;28;20185;-66
2023/05/12 08:49:31;;;;;;;4.87;4.47;;;17.50;99.90;;;;;;5032802;28;20199;-65
2023/05/12 08:52:00;;;;;;;4.73;4.43;;;17.60;99.90;;;;;;5034419;28;20184;-66
2023/05/12 08:54:27;;;;;;;6.10;5.60;;;17.80;99.90;;;;;;5034466;28;20179;-66
2023/05/12 08:56:53;;;;;;;5.73;5.37;;;17.90;99.90;;;;;;5033303;28;20380;-66
2023/05/12 08:59:19;;;;;;;4.70;4.40;;;18.10;99.90;;;;;;5033625;28;20263;-66
2023/05/12 09:01:46;;;;;;;5.50;5.20;;;18.40;99.90;;;;;;5034273;28;20218;-66
2023/05/12 09:04:14;;;;;;;4.87;4.57;;;18.70;99.90;;;;;;5034511;28;20168;-66
2023/05/12 09:06:41;;;;;;;5.37;4.87;;;18.80;99.90;;;;;;5034262;28;20187;-64
2023/05/12 09:09:06;;;;;;;4.50;4.30;;;19.00;99.90;;;;;;5033587;28;20192;-66
2023/05/12 09:11:32;;;;;;;4.10;3.90;;;19.00;99.90;;;;;;5033831;28;20609;-65
2023/05/12 09:14:05;;;;;;;4.53;4.23;;;19.10;99.90;;;;;;5034494;28;20183;-65
2023/05/12 09:16:33;;;;;;;5.67;5.37;;;19.30;99.90;;;;;;5033451;28;20203;-64
2023/05/12 09:18:59;;;;;;;4.40;4.20;;;19.40;99.90;;;;;;5034199;28;20219;-64
2023/05/12 09:21:26;;;;;;;6.50;6.10;;;19.40;99.90;;;;;;5033217;28;20556;-65
2023/05/12 09:23:56;;;;;;;6.73;4.17;;;19.40;99.90;;;;;;5033888;28;20305;-65
2023/05/12 09:26:23;;;;;;;5.93;5.63;;;19.30;99.90;;;;;;5034010;28;20171;-65
2023/05/12 09:28:51;;;;;;;5.57;5.27;;;19.40;99.90;;;;;;5033879;28;20195;-64
2023/05/12 09:31:20;;;;;;;5.10;4.80;;;19.50;99.90;;;;;;5032924;28;20207;-65
2023/05/12 09:33:45;;;;;;;4.27;3.93;;;19.70;99.90;;;;;;5033683;28;20258;-64
2023/05/12 09:36:20;;;;;;;4.10;3.90;;;19.80;99.90;;;;;;5034163;28;20556;-64
2023/05/12 09:38:45;;;;;;;4.90;4.47;;;20.00;99.90;;;;;;5033747;28;20551;-65
2023/05/12 09:41:11;;;;;;;4.97;4.63;;;20.10;99.90;;;;;;5032797;28;20180;-64
2023/05/12 09:43:43;;;;;;;4.43;4.22;;;20.20;99.90;;;;;;5033633;28;20266;-64
2023/05/12 09:46:08;;;;;;;4.73;4.30;;;20.40;99.90;;;;;;5033655;28;20237;-65
2023/05/12 09:48:34;;;;;;;4.63;4.43;;;20.40;99.90;;;;;;5033346;28;20199;-65
2023/05/12 09:51:00;;;;;;;4.45;4.15;;;20.40;99.90;;;;;;5031763;28;20243;-65
2023/05/12 09:53:26;;;;;;;4.20;3.95;;;20.50;99.90;;;;;;5033124;28;20203;-65
2023/05/12 09:55:51;;;;;;;4.38;4.15;;;20.70;99.90;;;;;;5033595;28;20217;-65
2023/05/12 09:58:19;;;;;;;3.95;3.75;;;21.10;99.90;;;;;;5033197;28;20575;-65
2023/05/12 10:00:45;;;;;;;5.10;4.68;;;21.20;99.90;;;;;;5032720;28;20249;-65
2023/05/12 10:03:13;;;;;;;4.68;4.47;;;21.10;99.90;;;;;;5032970;28;20187;-65
2023/05/12 10:05:48;;;;;;;4.32;4.03;;;21.10;99.90;;;;;;5032194;28;20555;-65
2023/05/12 10:08:20;;;;;;;5.03;4.82;;;20.90;99.90;;;;;;5033420;28;20214;-65
2023/05/12 10:10:48;;;;;;;4.30;4.00;;;20.90;99.90;;;;;;5031329;28;20261;-65
2023/05/12 10:13:13;;;;;;;4.63;4.40;;;20.60;99.90;;;;;;5031725;28;20186;-65
2023/05/12 10:15:40;;;;;;;4.53;4.22;;;20.60;99.90;;;;;;5030693;28;20183;-65
2023/05/12 10:18:07;;;;;;;3.90;3.70;;;20.60;99.90;;;;;;5033091;28;20207;-65
2023/05/12 10:20:34;;;;;;;4.00;3.75;;;20.90;99.90;;;;;;5032338;28;20183;-65
2023/05/12 10:23:00;;;;;;;4.15;3.95;;;21.50;99.90;;;;;;5032616;28;20270;-65
2023/05/12 10:25:27;;;;;;;5.03;4.22;;;21.90;99.90;;;;;;5032959;28;20250;-65
2023/05/12 10:27:54;;;;;;;4.28;3.97;;;22.30;99.90;;;;;;5032863;28;20207;-65
2023/05/12 10:30:20;;;;;;;4.78;4.57;;;22.50;99.90;;;;;;5032344;28;20203;-65
2023/05/12 10:32:46;;;;;;;6.13;5.72;;;22.60;99.90;;;;;;5032154;28;20318;-65
2023/05/12 10:35:13;;;;;;;3.88;3.60;;;23.00;99.90;;;;;;5032594;28;20254;-65
2023/05/12 10:37:40;;;;;;;4.10;3.80;;;23.00;99.90;;;;;;5032410;28;20719;-65
2023/05/12 10:40:07;;;;;;;4.03;3.83;;;23.30;99.90;;;;;;5032203;28;20533;-65
2023/05/12 10:42:41;;;;;;;4.85;4.45;;;23.60;99.90;;;;;;5032323;28;20179;-65
2023/05/12 10:45:16;;;;;;;3.50;3.30;;;23.60;99.90;;;;;;5032499;28;20246;-65
2023/05/12 10:47:43;;;;;;;4.25;3.95;;;23.90;99.90;;;;;;5029981;28;20207;-66
2023/05/12 10:50:12;;;;;;;4.20;3.97;;;24.10;99.90;;;;;;5014633;28;20203;-65
2023/05/12 10:52:56;;;;;;;3.60;3.40;;;23.90;99.90;;;;;;5032405;28;20168;-65
2023/05/12 10:55:32;;;;;;;5.10;4.22;;;23.60;99.90;;;;;;5032082;28;20661;-64
2023/05/12 10:58:11;;;;;;;5.32;5.03;;;23.40;99.90;;;;;;5032556;28;20240;-65
2023/05/12 11:01:04;;;;;;;4.40;4.10;;;23.40;99.90;;;;;;5031170;28;20183;-64
2023/05/12 11:03:30;;;;;;;4.20;3.90;;;23.20;99.90;;;;;;5030416;28;20187;-65
2023/05/12 11:06:00;;;;;;;4.50;4.20;;;22.90;99.90;;;;;;5031947;28;20641;-64
2023/05/12 11:08:26;;;;;;;4.32;4.03;;;22.90;99.90;;;;;;5032163;28;20694;-65
2023/05/12 11:10:52;;;;;;;4.40;4.10;;;22.90;99.90;;;;;;5031118;28;20294;-64
2023/05/12 11:13:18;;;;;;;4.43;4.03;;;23.00;99.90;;;;;;5031905;28;20175;-65
2023/05/12 11:15:44;;;;;;;4.68;4.28;;;22.80;99.90;;;;;;5031946;28;20191;-65
2023/05/12 11:18:11;;;;;;;5.18;4.85;;;22.70;99.90;;;;;;5032059;28;20712;-65
2023/05/12 11:20:37;;;;;;;4.60;4.25;;;22.90;99.90;;;;;;5027063;28;20218;-65
2023/05/12 11:23:03;;;;;;;4.65;4.25;;;23.00;99.90;;;;;;5031680;28;20224;-66
2023/05/12 11:25:29;;;;;;;4.43;4.00;;;23.20;99.90;;;;;;5030577;28;20198;-65
2023/05/12 11:27:55;;;;;;;4.70;4.30;;;23.50;99.90;;;;;;5032288;28;20196;-65
2023/05/12 11:30:21;;;;;;;4.68;4.28;;;23.80;99.90;;;;;;5031769;28;20202;-65
2023/05/12 11:32:46;;;;;;;4.15;3.88;;;24.00;99.90;;;;;;5031874;28;20178;-65
2023/05/12 11:35:14;;;;;;;6.10;4.18;;;24.20;99.90;;;;;;5032096;28;20172;-65
2023/05/12 11:37:42;;;;;;;4.00;3.70;;;24.30;99.90;;;;;;5031580;28;20203;-65
2023/05/12 11:40:25;;;;;;;4.13;3.83;;;24.50;99.90;;;;;;5031915;28;20172;-65
2023/05/12 11:42:53;;;;;;;4.40;4.10;;;24.70;99.90;;;;;;5031667;28;20211;-65
2023/05/12 11:45:27;;;;;;;4.35;4.05;;;24.50;99.90;;;;;;5031924;28;20176;-65
2023/05/12 11:48:11;;;;;;;4.43;4.07;;;24.40;99.90;;;;;;5031537;28;20257;-66
2023/05/12 11:50:42;;;;;;;3.92;3.40;;;24.30;99.90;;;;;;5031698;28;20695;-65
2023/05/12 11:53:13;;;;;;;4.28;4.07;;;24.10;99.90;;;;;;5031694;28;20641;-66
2023/05/12 11:55:47;;;;;;;4.47;4.10;;;23.90;99.90;;;;;;5029900;28;20167;-66
2023/05/12 11:58:19;;;;;;;3.95;3.75;;;23.70;99.90;;;;;;5031651;28;20195;-65
2023/05/12 12:00:45;;;;;;;4.40;4.00;;;23.50;99.90;;;;;;5011904;28;20180;-66
2023/05/12 12:03:12;;;;;;;4.00;3.70;;;23.80;99.90;;;;;;5030972;28;20180;-65
2023/05/12 12:05:40;;;;;;;4.22;3.83;;;24.40;99.90;;;;;;5031443;28;20168;-65
2023/05/12 12:08:15;;;;;;;4.22;3.80;;;24.90;99.90;;;;;;5031765;28;20202;-66
2023/05/12 12:10:45;;;;;;;4.15;3.90;;;25.20;99.90;;;;;;5031295;28;20207;-65
2023/05/12 12:13:21;;;;;;;3.72;3.53;;;25.40;99.90;;;;;;5030827;28;20186;-65
2023/05/12 12:15:47;;;;;;;4.72;4.25;;;25.70;99.90;;;;;;5031141;28;20341;-65
2023/05/12 12:18:14;;;;;;;4.18;3.97;;;25.60;99.90;;;;;;5031504;28;20219;-65
2023/05/12 12:20:40;;;;;;;4.68;4.32;;;25.60;99.90;;;;;;5030649;28;20171;-65
2023/05/12 12:23:05;;;;;;;4.95;4.65;;;25.60;99.90;;;;;;5031445;28;20178;-65
2023/05/12 12:25:31;;;;;;;4.85;4.55;;;25.40;99.90;;;;;;5031064;28;20187;-65
2023/05/12 12:27:56;;;;;;;4.40;4.10;;;25.30;99.90;;;;;;5029296;28;20373;-65
2023/05/12 12:30:22;;;;;;;4.78;4.47;;;25.10;99.90;;;;;;5028724;28;20703;-65
2023/05/12 12:32:48;;;;;;;4.70;4.25;;;24.90;99.90;;;;;;5031116;28;20241;-65
2023/05/12 12:35:13;;;;;;;4.75;4.45;;;24.70;99.90;;;;;;5031067;28;20168;-65
2023/05/12 12:37:40;;;;;;;4.15;3.85;;;24.30;99.90;;;;;;5030983;28;20202;-65